sensor_id;sensor_type;location;lat;lon;timestamp;P1;durP1;ratioP1;P2;durP2;ratioP2
55601;SDS011;59921;51.332;12.410;2022-12-29T00:02:09;2.85;;;1.73;;
55601;SDS011;59921;51.332;12.410;2022-12-29T00:04:35;2.63;;;1.98;;
55601;SDS011;59921;51.332;12.410;2022-12-29T00:07:01;3.05;;;1.77;;
55601;SDS011;59921;51.332;12.410;2022-12-29T00:09:29;2.53;;;1.60;;
55601;SDS011;59921;51.332;12.410;2022-12-29T00:11:55;3.05;;;1.98;;
55601;SDS011;59921;51.332;12.410;2022-12-29T00:14:21;2.30;;;1.88;;
55601;SDS011;59921;51.332;12.410;2022-12-29T00:17:05;2.80;;;1.88;;
55601;SDS011;59921;51.332;12.410;2022-12-29T00:19:31;2.45;;;1.67;;
55601;SDS011;59921;51.332;12.410;2022-12-29T00:22:15;2.85;;;2.05;;
55601;SDS011;59921;51.332;12.410;2022-12-29T00:24:59;2.83;;;1.85;;
55601;SDS011;59921;51.332;12.410;2022-12-29T00:27:44;2.70;;;1.80;;
55601;SDS011;59921;51.332;12.410;2022-12-29T00:30:28;2.63;;;1.90;;
55601;SDS011;59921;51.332;12.410;2022-12-29T00:33:13;2.75;;;2.00;;
55601;SDS011;59921;51.332;12.410;2022-12-29T00:36:07;2.88;;;2.00;;
55601;SDS011;59921;51.332;12.410;2022-12-29T00:38:36;2.90;;;2.10;;
55601;SDS011;59921;51.332;12.410;2022-12-29T00:41:22;2.55;;;1.90;;
55601;SDS011;59921;51.332;12.410;2022-12-29T00:44:06;3.40;;;2.00;;
55601;SDS011;59921;51.332;12.410;2022-12-29T00:46:39;4.60;;;2.10;;
55601;SDS011;59921;51.332;12.410;2022-12-29T00:49:06;3.92;;;2.05;;
55601;SDS011;59921;51.332;12.410;2022-12-29T00:51:52;2.55;;;2.08;;
55601;SDS011;59921;51.332;12.410;2022-12-29T00:54:18;3.10;;;2.20;;
55601;SDS011;59921;51.332;12.410;2022-12-29T00:56:47;3.70;;;2.17;;
55601;SDS011;59921;51.332;12.410;2022-12-29T00:59:13;2.40;;;2.00;;
55601;SDS011;59921;51.332;12.410;2022-12-29T01:01:39;2.80;;;2.15;;
55601;SDS011;59921;51.332;12.410;2022-12-29T01:04:06;3.45;;;2.30;;
55601;SDS011;59921;51.332;12.410;2022-12-29T01:06:32;3.05;;;2.30;;
55601;SDS011;59921;51.332;12.410;2022-12-29T01:08:58;3.47;;;2.53;;
55601;SDS011;59921;51.332;12.410;2022-12-29T01:11:42;3.08;;;2.13;;
55601;SDS011;59921;51.332;12.410;2022-12-29T01:14:11;3.35;;;2.42;;
55601;SDS011;59921;51.332;12.410;2022-12-29T01:16:36;3.25;;;2.40;;
55601;SDS011;59921;51.332;12.410;2022-12-29T01:19:02;3.28;;;2.40;;
55601;SDS011;59921;51.332;12.410;2022-12-29T01:21:28;3.40;;;2.40;;
55601;SDS011;59921;51.332;12.410;2022-12-29T01:23:53;3.20;;;2.17;;
55601;SDS011;59921;51.332;12.410;2022-12-29T01:26:19;3.58;;;2.40;;
55601;SDS011;59921;51.332;12.410;2022-12-29T01:28:44;3.25;;;2.35;;
55601;SDS011;59921;51.332;12.410;2022-12-29T01:31:10;3.28;;;2.22;;
55601;SDS011;59921;51.332;12.410;2022-12-29T01:33:37;4.00;;;2.47;;
55601;SDS011;59921;51.332;12.410;2022-12-29T01:36:07;3.35;;;2.30;;
55601;SDS011;59921;51.332;12.410;2022-12-29T01:38:35;2.97;;;2.38;;
55601;SDS011;59921;51.332;12.410;2022-12-29T01:41:02;3.45;;;2.40;;
55601;SDS011;59921;51.332;12.410;2022-12-29T01:46:56;3.95;;;2.55;;
55601;SDS011;59921;51.332;12.410;2022-12-29T01:49:08;3.10;;;2.28;;
55601;SDS011;59921;51.332;12.410;2022-12-29T01:51:45;3.05;;;2.30;;
55601;SDS011;59921;51.332;12.410;2022-12-29T01:54:18;3.08;;;2.40;;
55601;SDS011;59921;51.332;12.410;2022-12-29T01:56:50;3.55;;;2.38;;
55601;SDS011;59921;51.332;12.410;2022-12-29T01:59:18;3.38;;;2.60;;
55601;SDS011;59921;51.332;12.410;2022-12-29T02:01:46;3.50;;;2.42;;
55601;SDS011;59921;51.332;12.410;2022-12-29T02:04:12;3.67;;;2.53;;
55601;SDS011;59921;51.332;12.410;2022-12-29T02:06:43;3.47;;;2.40;;
55601;SDS011;59921;51.332;12.410;2022-12-29T02:09:13;3.38;;;2.40;;
55601;SDS011;59921;51.332;12.410;2022-12-29T02:11:39;3.35;;;2.45;;
55601;SDS011;59921;51.332;12.410;2022-12-29T02:14:08;4.18;;;2.35;;
55601;SDS011;59921;51.332;12.410;2022-12-29T02:19:35;3.22;;;2.38;;
55601;SDS011;59921;51.332;12.410;2022-12-29T02:22:18;3.00;;;2.05;;
55601;SDS011;59921;51.332;12.410;2022-12-29T02:39:15;3.13;;;2.30;;
55601;SDS011;59921;51.332;12.410;2022-12-29T02:47:09;3.22;;;2.33;;
55601;SDS011;59921;51.332;12.410;2022-12-29T02:52:27;3.15;;;2.17;;
55601;SDS011;59921;51.332;12.410;2022-12-29T02:54:58;3.03;;;2.20;;
55601;SDS011;59921;51.332;12.410;2022-12-29T02:59:53;3.45;;;2.10;;
55601;SDS011;59921;51.332;12.410;2022-12-29T03:11:16;2.88;;;2.25;;
55601;SDS011;59921;51.332;12.410;2022-12-29T03:14:14;3.55;;;2.10;;
55601;SDS011;59921;51.332;12.410;2022-12-29T03:19:38;2.75;;;2.17;;
55601;SDS011;59921;51.332;12.410;2022-12-29T03:22:13;3.15;;;2.22;;
55601;SDS011;59921;51.332;12.410;2022-12-29T03:27:53;2.35;;;1.90;;
55601;SDS011;59921;51.332;12.410;2022-12-29T03:30:22;2.83;;;1.88;;
55601;SDS011;59921;51.332;12.410;2022-12-29T03:32:54;2.60;;;1.90;;
55601;SDS011;59921;51.332;12.410;2022-12-29T03:35:23;2.85;;;2.15;;
55601;SDS011;59921;51.332;12.410;2022-12-29T03:40:26;3.15;;;1.98;;
55601;SDS011;59921;51.332;12.410;2022-12-29T03:42:54;2.88;;;1.88;;
55601;SDS011;59921;51.332;12.410;2022-12-29T03:45:21;2.60;;;1.90;;
55601;SDS011;59921;51.332;12.410;2022-12-29T03:47:46;3.25;;;1.80;;
55601;SDS011;59921;51.332;12.410;2022-12-29T03:50:12;2.35;;;1.77;;
55601;SDS011;59921;51.332;12.410;2022-12-29T03:52:38;2.75;;;1.98;;
55601;SDS011;59921;51.332;12.410;2022-12-29T03:55:04;2.55;;;1.80;;
55601;SDS011;59921;51.332;12.410;2022-12-29T03:57:30;2.45;;;1.90;;
55601;SDS011;59921;51.332;12.410;2022-12-29T03:59:56;3.38;;;1.98;;
55601;SDS011;59921;51.332;12.410;2022-12-29T04:02:21;2.40;;;1.85;;
55601;SDS011;59921;51.332;12.410;2022-12-29T04:04:47;3.08;;;1.92;;
55601;SDS011;59921;51.332;12.410;2022-12-29T04:07:12;3.28;;;1.98;;
55601;SDS011;59921;51.332;12.410;2022-12-29T04:09:38;2.70;;;1.73;;
55601;SDS011;59921;51.332;12.410;2022-12-29T04:12:03;2.83;;;1.90;;
55601;SDS011;59921;51.332;12.410;2022-12-29T04:14:29;2.22;;;1.70;;
55601;SDS011;59921;51.332;12.410;2022-12-29T04:16:55;2.03;;;1.70;;
55601;SDS011;59921;51.332;12.410;2022-12-29T04:19:20;2.60;;;1.60;;
55601;SDS011;59921;51.332;12.410;2022-12-29T04:21:46;2.08;;;1.67;;
55601;SDS011;59921;51.332;12.410;2022-12-29T04:24:11;2.35;;;2.00;;
55601;SDS011;59921;51.332;12.410;2022-12-29T04:26:38;2.83;;;1.70;;
55601;SDS011;59921;51.332;12.410;2022-12-29T04:29:03;2.25;;;1.60;;
55601;SDS011;59921;51.332;12.410;2022-12-29T04:31:29;2.65;;;1.80;;
55601;SDS011;59921;51.332;12.410;2022-12-29T04:33:54;2.10;;;1.60;;
55601;SDS011;59921;51.332;12.410;2022-12-29T04:36:22;2.42;;;1.70;;
55601;SDS011;59921;51.332;12.410;2022-12-29T04:38:48;2.20;;;1.70;;
55601;SDS011;59921;51.332;12.410;2022-12-29T04:41:13;2.88;;;1.70;;
55601;SDS011;59921;51.332;12.410;2022-12-29T04:43:39;2.13;;;1.77;;
55601;SDS011;59921;51.332;12.410;2022-12-29T04:46:04;2.35;;;1.40;;
55601;SDS011;59921;51.332;12.410;2022-12-29T04:48:31;2.53;;;1.67;;
55601;SDS011;59921;51.332;12.410;2022-12-29T04:50:56;2.65;;;1.70;;
55601;SDS011;59921;51.332;12.410;2022-12-29T04:53:22;2.55;;;1.70;;
55601;SDS011;59921;51.332;12.410;2022-12-29T04:55:48;2.50;;;1.60;;
55601;SDS011;59921;51.332;12.410;2022-12-29T04:58:18;2.30;;;1.60;;
55601;SDS011;59921;51.332;12.410;2022-12-29T05:00:44;2.35;;;1.60;;
55601;SDS011;59921;51.332;12.410;2022-12-29T05:03:10;2.05;;;1.45;;
55601;SDS011;59921;51.332;12.410;2022-12-29T05:05:35;2.47;;;1.70;;
55601;SDS011;59921;51.332;12.410;2022-12-29T05:08:01;1.73;;;1.35;;
55601;SDS011;59921;51.332;12.410;2022-12-29T05:10:27;2.28;;;1.50;;
55601;SDS011;59921;51.332;12.410;2022-12-29T05:12:53;2.63;;;1.70;;
55601;SDS011;59921;51.332;12.410;2022-12-29T05:15:18;2.53;;;1.45;;
55601;SDS011;59921;51.332;12.410;2022-12-29T05:17:47;2.67;;;1.60;;
55601;SDS011;59921;51.332;12.410;2022-12-29T05:20:12;1.80;;;1.42;;
55601;SDS011;59921;51.332;12.410;2022-12-29T05:22:38;2.13;;;1.30;;
55601;SDS011;59921;51.332;12.410;2022-12-29T05:25:04;1.60;;;1.40;;
55601;SDS011;59921;51.332;12.410;2022-12-29T05:27:30;1.80;;;1.40;;
55601;SDS011;59921;51.332;12.410;2022-12-29T05:29:55;3.78;;;1.48;;
55601;SDS011;59921;51.332;12.410;2022-12-29T05:32:21;2.13;;;1.40;;
55601;SDS011;59921;51.332;12.410;2022-12-29T05:34:47;1.88;;;1.40;;
55601;SDS011;59921;51.332;12.410;2022-12-29T05:37:12;2.00;;;1.48;;
55601;SDS011;59921;51.332;12.410;2022-12-29T05:39:38;2.28;;;1.30;;
55601;SDS011;59921;51.332;12.410;2022-12-29T05:42:04;1.83;;;1.50;;
55601;SDS011;59921;51.332;12.410;2022-12-29T05:44:30;1.95;;;1.35;;
55601;SDS011;59921;51.332;12.410;2022-12-29T05:46:55;2.00;;;1.50;;
55601;SDS011;59921;51.332;12.410;2022-12-29T05:49:21;2.67;;;1.33;;
55601;SDS011;59921;51.332;12.410;2022-12-29T05:51:46;1.80;;;1.40;;
55601;SDS011;59921;51.332;12.410;2022-12-29T05:54:12;2.45;;;1.30;;
55601;SDS011;59921;51.332;12.410;2022-12-29T05:56:37;1.65;;;1.35;;
55601;SDS011;59921;51.332;12.410;2022-12-29T05:59:03;2.30;;;1.40;;
55601;SDS011;59921;51.332;12.410;2022-12-29T06:01:28;1.67;;;1.30;;
55601;SDS011;59921;51.332;12.410;2022-12-29T06:03:54;1.80;;;1.38;;
55601;SDS011;59921;51.332;12.410;2022-12-29T06:06:19;1.90;;;1.38;;
55601;SDS011;59921;51.332;12.410;2022-12-29T06:08:45;1.70;;;1.20;;
55601;SDS011;59921;51.332;12.410;2022-12-29T06:11:11;1.85;;;1.20;;
55601;SDS011;59921;51.332;12.410;2022-12-29T06:13:36;1.27;;;1.10;;
55601;SDS011;59921;51.332;12.410;2022-12-29T06:16:02;1.55;;;1.27;;
55601;SDS011;59921;51.332;12.410;2022-12-29T06:18:28;1.90;;;1.40;;
55601;SDS011;59921;51.332;12.410;2022-12-29T06:20:54;2.55;;;1.48;;
55601;SDS011;59921;51.332;12.410;2022-12-29T06:23:19;1.75;;;1.02;;
55601;SDS011;59921;51.332;12.410;2022-12-29T06:25:46;1.60;;;1.35;;
55601;SDS011;59921;51.332;12.410;2022-12-29T06:28:13;1.42;;;1.20;;
55601;SDS011;59921;51.332;12.410;2022-12-29T06:30:39;2.08;;;1.38;;
55601;SDS011;59921;51.332;12.410;2022-12-29T06:33:04;1.88;;;1.10;;
55601;SDS011;59921;51.332;12.410;2022-12-29T06:35:30;2.17;;;1.40;;
55601;SDS011;59921;51.332;12.410;2022-12-29T06:37:56;1.50;;;1.20;;
55601;SDS011;59921;51.332;12.410;2022-12-29T06:40:21;1.60;;;1.10;;
55601;SDS011;59921;51.332;12.410;2022-12-29T06:42:48;1.45;;;1.00;;
55601;SDS011;59921;51.332;12.410;2022-12-29T06:45:13;1.35;;;1.08;;
55601;SDS011;59921;51.332;12.410;2022-12-29T06:47:39;1.20;;;1.05;;
55601;SDS011;59921;51.332;12.410;2022-12-29T06:50:04;1.67;;;1.30;;
55601;SDS011;59921;51.332;12.410;2022-12-29T06:52:30;1.55;;;1.23;;
55601;SDS011;59921;51.332;12.410;2022-12-29T06:54:56;1.63;;;1.30;;
55601;SDS011;59921;51.332;12.410;2022-12-29T06:57:21;1.65;;;1.10;;
55601;SDS011;59921;51.332;12.410;2022-12-29T06:59:47;1.55;;;1.25;;
55601;SDS011;59921;51.332;12.410;2022-12-29T07:02:13;1.30;;;1.10;;
55601;SDS011;59921;51.332;12.410;2022-12-29T07:04:39;1.48;;;1.20;;
55601;SDS011;59921;51.332;12.410;2022-12-29T07:07:05;2.03;;;1.15;;
55601;SDS011;59921;51.332;12.410;2022-12-29T07:09:31;1.92;;;1.23;;
55601;SDS011;59921;51.332;12.410;2022-12-29T07:11:56;1.50;;;1.08;;
55601;SDS011;59921;51.332;12.410;2022-12-29T07:14:22;2.95;;;1.10;;
55601;SDS011;59921;51.332;12.410;2022-12-29T07:16:47;1.38;;;1.10;;
55601;SDS011;59921;51.332;12.410;2022-12-29T07:19:13;1.30;;;1.02;;
55601;SDS011;59921;51.332;12.410;2022-12-29T07:21:39;1.92;;;1.20;;
55601;SDS011;59921;51.332;12.410;2022-12-29T07:24:04;1.90;;;1.10;;
55601;SDS011;59921;51.332;12.410;2022-12-29T07:26:30;1.30;;;1.10;;
55601;SDS011;59921;51.332;12.410;2022-12-29T07:28:56;2.35;;;1.27;;
55601;SDS011;59921;51.332;12.410;2022-12-29T07:31:24;1.20;;;1.10;;
55601;SDS011;59921;51.332;12.410;2022-12-29T07:33:49;1.48;;;1.10;;
55601;SDS011;59921;51.332;12.410;2022-12-29T07:36:15;1.30;;;1.10;;
55601;SDS011;59921;51.332;12.410;2022-12-29T07:38:42;1.13;;;1.00;;
55601;SDS011;59921;51.332;12.410;2022-12-29T07:41:08;1.98;;;1.20;;
55601;SDS011;59921;51.332;12.410;2022-12-29T07:43:34;1.50;;;1.10;;
55601;SDS011;59921;51.332;12.410;2022-12-29T07:45:59;1.77;;;1.20;;
55601;SDS011;59921;51.332;12.410;2022-12-29T07:48:25;1.63;;;1.10;;
55601;SDS011;59921;51.332;12.410;2022-12-29T07:50:51;1.50;;;1.10;;
55601;SDS011;59921;51.332;12.410;2022-12-29T07:53:17;1.88;;;1.10;;
55601;SDS011;59921;51.332;12.410;2022-12-29T07:55:42;2.00;;;1.10;;
55601;SDS011;59921;51.332;12.410;2022-12-29T07:58:08;1.58;;;1.13;;
55601;SDS011;59921;51.332;12.410;2022-12-29T08:00:33;1.30;;;1.20;;
55601;SDS011;59921;51.332;12.410;2022-12-29T08:02:59;1.48;;;1.17;;
55601;SDS011;59921;51.332;12.410;2022-12-29T08:05:25;2.35;;;1.13;;
55601;SDS011;59921;51.332;12.410;2022-12-29T08:07:50;2.53;;;1.30;;
55601;SDS011;59921;51.332;12.410;2022-12-29T08:10:16;1.40;;;1.08;;
55601;SDS011;59921;51.332;12.410;2022-12-29T08:12:42;1.38;;;1.00;;
55601;SDS011;59921;51.332;12.410;2022-12-29T08:15:09;1.25;;;1.13;;
55601;SDS011;59921;51.332;12.410;2022-12-29T08:17:36;1.58;;;1.00;;
55601;SDS011;59921;51.332;12.410;2022-12-29T08:20:03;2.65;;;1.10;;
55601;SDS011;59921;51.332;12.410;2022-12-29T08:22:29;1.20;;;0.93;;
55601;SDS011;59921;51.332;12.410;2022-12-29T08:24:54;1.60;;;1.10;;
55601;SDS011;59921;51.332;12.410;2022-12-29T08:27:20;1.98;;;1.25;;
55601;SDS011;59921;51.332;12.410;2022-12-29T08:29:46;2.08;;;1.13;;
55601;SDS011;59921;51.332;12.410;2022-12-29T08:32:11;1.10;;;1.00;;
55601;SDS011;59921;51.332;12.410;2022-12-29T08:34:37;1.60;;;0.98;;
55601;SDS011;59921;51.332;12.410;2022-12-29T08:37:03;1.75;;;1.00;;
55601;SDS011;59921;51.332;12.410;2022-12-29T08:39:28;1.20;;;0.98;;
55601;SDS011;59921;51.332;12.410;2022-12-29T08:41:54;1.30;;;1.08;;
55601;SDS011;59921;51.332;12.410;2022-12-29T08:44:20;1.35;;;0.90;;
55601;SDS011;59921;51.332;12.410;2022-12-29T08:46:46;1.50;;;0.98;;
55601;SDS011;59921;51.332;12.410;2022-12-29T08:49:11;1.15;;;1.00;;
55601;SDS011;59921;51.332;12.410;2022-12-29T08:51:37;1.00;;;0.90;;
55601;SDS011;59921;51.332;12.410;2022-12-29T08:54:03;1.58;;;0.90;;
55601;SDS011;59921;51.332;12.410;2022-12-29T08:56:29;1.73;;;0.98;;
55601;SDS011;59921;51.332;12.410;2022-12-29T08:58:54;2.03;;;1.15;;
55601;SDS011;59921;51.332;12.410;2022-12-29T09:01:20;1.10;;;1.00;;
55601;SDS011;59921;51.332;12.410;2022-12-29T09:03:46;1.42;;;1.20;;
55601;SDS011;59921;51.332;12.410;2022-12-29T09:06:12;1.30;;;0.98;;
55601;SDS011;59921;51.332;12.410;2022-12-29T09:08:38;1.77;;;1.00;;
55601;SDS011;59921;51.332;12.410;2022-12-29T09:11:07;2.03;;;1.10;;
55601;SDS011;59921;51.332;12.410;2022-12-29T09:13:39;1.08;;;0.98;;
55601;SDS011;59921;51.332;12.410;2022-12-29T09:16:05;1.20;;;1.00;;
55601;SDS011;59921;51.332;12.410;2022-12-29T09:18:31;1.40;;;0.90;;
55601;SDS011;59921;51.332;12.410;2022-12-29T09:21:00;1.40;;;1.05;;
55601;SDS011;59921;51.332;12.410;2022-12-29T09:23:28;1.75;;;0.88;;
55601;SDS011;59921;51.332;12.410;2022-12-29T09:25:54;1.60;;;1.00;;
55601;SDS011;59921;51.332;12.410;2022-12-29T09:28:20;1.45;;;1.13;;
55601;SDS011;59921;51.332;12.410;2022-12-29T09:30:46;1.10;;;0.90;;
55601;SDS011;59921;51.332;12.410;2022-12-29T09:33:12;1.40;;;1.10;;
55601;SDS011;59921;51.332;12.410;2022-12-29T09:35:41;1.25;;;1.00;;
55601;SDS011;59921;51.332;12.410;2022-12-29T09:38:10;2.33;;;1.20;;
55601;SDS011;59921;51.332;12.410;2022-12-29T09:40:36;1.00;;;0.90;;
55601;SDS011;59921;51.332;12.410;2022-12-29T09:46:26;1.33;;;0.98;;
55601;SDS011;59921;51.332;12.410;2022-12-29T09:51:25;1.42;;;1.00;;
55601;SDS011;59921;51.332;12.410;2022-12-29T09:54:02;1.90;;;1.33;;
55601;SDS011;59921;51.332;12.410;2022-12-29T09:56:43;1.98;;;1.20;;
55601;SDS011;59921;51.332;12.410;2022-12-29T09:59:12;1.58;;;1.08;;
55601;SDS011;59921;51.332;12.410;2022-12-29T10:01:51;1.92;;;1.10;;
55601;SDS011;59921;51.332;12.410;2022-12-29T10:04:26;1.10;;;0.90;;
55601;SDS011;59921;51.332;12.410;2022-12-29T10:07:03;1.52;;;0.93;;
55601;SDS011;59921;51.332;12.410;2022-12-29T10:15:12;1.77;;;1.27;;
55601;SDS011;59921;51.332;12.410;2022-12-29T10:25:45;1.27;;;0.90;;
55601;SDS011;59921;51.332;12.410;2022-12-29T10:28:21;1.90;;;1.08;;
55601;SDS011;59921;51.332;12.410;2022-12-29T10:30:49;1.77;;;1.30;;
55601;SDS011;59921;51.332;12.410;2022-12-29T10:33:30;1.50;;;1.25;;
55601;SDS011;59921;51.332;12.410;2022-12-29T10:36:20;1.85;;;1.10;;
55601;SDS011;59921;51.332;12.410;2022-12-29T10:38:59;2.80;;;1.20;;
55601;SDS011;59921;51.332;12.410;2022-12-29T10:41:46;1.98;;;1.30;;
55601;SDS011;59921;51.332;12.410;2022-12-29T10:44:25;2.63;;;1.30;;
55601;SDS011;59921;51.332;12.410;2022-12-29T10:46:58;2.35;;;1.30;;
55601;SDS011;59921;51.332;12.410;2022-12-29T10:49:28;2.08;;;1.30;;
55601;SDS011;59921;51.332;12.410;2022-12-29T10:51:57;1.40;;;1.20;;
55601;SDS011;59921;51.332;12.410;2022-12-29T10:59:58;2.05;;;1.42;;
55601;SDS011;59921;51.332;12.410;2022-12-29T11:05:28;1.80;;;1.48;;
55601;SDS011;59921;51.332;12.410;2022-12-29T11:07:58;2.38;;;1.52;;
55601;SDS011;59921;51.332;12.410;2022-12-29T11:10:31;2.50;;;1.40;;
55601;SDS011;59921;51.332;12.410;2022-12-29T11:15:47;1.58;;;1.17;;
55601;SDS011;59921;51.332;12.410;2022-12-29T11:18:22;1.80;;;1.33;;
55601;SDS011;59921;51.332;12.410;2022-12-29T11:20:58;3.22;;;1.33;;
55601;SDS011;59921;51.332;12.410;2022-12-29T11:31:02;1.98;;;1.45;;
55601;SDS011;59921;51.332;12.410;2022-12-29T11:33:29;2.30;;;1.33;;
55601;SDS011;59921;51.332;12.410;2022-12-29T11:35:58;2.40;;;1.48;;
55601;SDS011;59921;51.332;12.410;2022-12-29T11:41:27;2.10;;;1.40;;
55601;SDS011;59921;51.332;12.410;2022-12-29T11:43:59;2.75;;;1.60;;
55601;SDS011;59921;51.332;12.410;2022-12-29T11:46:30;2.33;;;1.70;;
55601;SDS011;59921;51.332;12.410;2022-12-29T11:48:59;2.30;;;1.50;;
55601;SDS011;59921;51.332;12.410;2022-12-29T11:51:38;1.95;;;1.35;;
55601;SDS011;59921;51.332;12.410;2022-12-29T11:54:09;1.83;;;1.27;;
55601;SDS011;59921;51.332;12.410;2022-12-29T11:56:42;2.42;;;1.60;;
55601;SDS011;59921;51.332;12.410;2022-12-29T11:59:24;3.30;;;1.40;;
55601;SDS011;59921;51.332;12.410;2022-12-29T12:01:52;2.10;;;1.60;;
55601;SDS011;59921;51.332;12.410;2022-12-29T12:04:22;2.70;;;1.30;;
55601;SDS011;59921;51.332;12.410;2022-12-29T12:07:02;2.55;;;1.60;;
55601;SDS011;59921;51.332;12.410;2022-12-29T12:09:37;2.47;;;1.50;;
55601;SDS011;59921;51.332;12.410;2022-12-29T12:12:42;2.53;;;1.73;;
55601;SDS011;59921;51.332;12.410;2022-12-29T12:15:40;2.85;;;1.40;;
55601;SDS011;59921;51.332;12.410;2022-12-29T12:18:14;1.73;;;1.60;;
55601;SDS011;59921;51.332;12.410;2022-12-29T12:20:49;2.25;;;1.52;;
55601;SDS011;59921;51.332;12.410;2022-12-29T12:35:04;2.03;;;1.50;;
55601;SDS011;59921;51.332;12.410;2022-12-29T12:54:29;2.13;;;1.38;;
55601;SDS011;59921;51.332;12.410;2022-12-29T12:56:48;1.92;;;1.50;;
55601;SDS011;59921;51.332;12.410;2022-12-29T12:59:33;2.00;;;1.33;;
55601;SDS011;59921;51.332;12.410;2022-12-29T13:02:08;2.15;;;1.27;;
55601;SDS011;59921;51.332;12.410;2022-12-29T13:04:52;1.95;;;1.40;;
55601;SDS011;59921;51.332;12.410;2022-12-29T13:10:00;1.98;;;1.40;;
55601;SDS011;59921;51.332;12.410;2022-12-29T13:15:46;2.03;;;1.40;;
55601;SDS011;59921;51.332;12.410;2022-12-29T13:34:40;1.65;;;1.20;;
55601;SDS011;59921;51.332;12.410;2022-12-29T13:37:26;2.15;;;1.33;;
55601;SDS011;59921;51.332;12.410;2022-12-29T13:40:01;1.88;;;1.30;;
55601;SDS011;59921;51.332;12.410;2022-12-29T13:42:35;1.60;;;1.30;;
55601;SDS011;59921;51.332;12.410;2022-12-29T13:45:02;1.75;;;1.30;;
55601;SDS011;59921;51.332;12.410;2022-12-29T13:47:40;1.75;;;1.13;;
55601;SDS011;59921;51.332;12.410;2022-12-29T13:50:15;2.58;;;1.30;;
55601;SDS011;59921;51.332;12.410;2022-12-29T14:02:09;2.20;;;1.38;;
55601;SDS011;59921;51.332;12.410;2022-12-29T14:05:00;2.03;;;1.30;;
55601;SDS011;59921;51.332;12.410;2022-12-29T14:07:29;1.45;;;1.20;;
55601;SDS011;59921;51.332;12.410;2022-12-29T14:10:03;1.92;;;1.27;;
55601;SDS011;59921;51.332;12.410;2022-12-29T14:12:35;2.00;;;1.30;;
55601;SDS011;59921;51.332;12.410;2022-12-29T14:17:37;2.25;;;1.15;;
55601;SDS011;59921;51.332;12.410;2022-12-29T14:20:05;1.85;;;1.30;;
55601;SDS011;59921;51.332;12.410;2022-12-29T14:22:57;2.80;;;1.10;;
55601;SDS011;59921;51.332;12.410;2022-12-29T14:28:38;2.92;;;1.30;;
55601;SDS011;59921;51.332;12.410;2022-12-29T14:33:40;2.60;;;1.23;;
55601;SDS011;59921;51.332;12.410;2022-12-29T14:37:17;2.08;;;1.50;;
55601;SDS011;59921;51.332;12.410;2022-12-29T14:42:03;2.05;;;1.30;;
55601;SDS011;59921;51.332;12.410;2022-12-29T14:52:54;1.92;;;1.23;;
55601;SDS011;59921;51.332;12.410;2022-12-29T14:57:59;1.92;;;1.15;;
55601;SDS011;59921;51.332;12.410;2022-12-29T15:00:27;1.50;;;1.20;;
55601;SDS011;59921;51.332;12.410;2022-12-29T15:03:04;1.40;;;1.10;;
55601;SDS011;59921;51.332;12.410;2022-12-29T15:05:36;1.23;;;1.00;;
55601;SDS011;59921;51.332;12.410;2022-12-29T15:08:09;1.70;;;1.10;;
55601;SDS011;59921;51.332;12.410;2022-12-29T15:10:42;1.70;;;1.00;;
55601;SDS011;59921;51.332;12.410;2022-12-29T15:13:14;3.58;;;1.48;;
55601;SDS011;59921;51.332;12.410;2022-12-29T15:15:42;2.20;;;1.20;;
55601;SDS011;59921;51.332;12.410;2022-12-29T15:20:50;2.00;;;1.30;;
55601;SDS011;59921;51.332;12.410;2022-12-29T15:23:36;1.60;;;1.08;;
55601;SDS011;59921;51.332;12.410;2022-12-29T15:28:39;1.80;;;1.35;;
55601;SDS011;59921;51.332;12.410;2022-12-29T15:31:13;1.35;;;1.10;;
55601;SDS011;59921;51.332;12.410;2022-12-29T15:33:42;2.17;;;1.15;;
55601;SDS011;59921;51.332;12.410;2022-12-29T15:36:10;1.52;;;1.17;;
55601;SDS011;59921;51.332;12.410;2022-12-29T15:38:38;1.55;;;1.02;;
55601;SDS011;59921;51.332;12.410;2022-12-29T15:41:18;1.55;;;1.20;;
55601;SDS011;59921;51.332;12.410;2022-12-29T15:46:42;1.33;;;1.00;;
55601;SDS011;59921;51.332;12.410;2022-12-29T15:49:08;1.40;;;1.10;;
55601;SDS011;59921;51.332;12.410;2022-12-29T15:51:38;1.65;;;1.17;;
55601;SDS011;59921;51.332;12.410;2022-12-29T15:54:04;1.60;;;1.10;;
55601;SDS011;59921;51.332;12.410;2022-12-29T15:56:31;1.33;;;1.00;;
55601;SDS011;59921;51.332;12.410;2022-12-29T15:58:58;1.77;;;1.20;;
55601;SDS011;59921;51.332;12.410;2022-12-29T16:01:27;1.40;;;0.90;;
55601;SDS011;59921;51.332;12.410;2022-12-29T16:03:54;1.48;;;1.02;;
55601;SDS011;59921;51.332;12.410;2022-12-29T16:06:36;2.20;;;1.15;;
55601;SDS011;59921;51.332;12.410;2022-12-29T16:09:04;1.58;;;0.93;;
55601;SDS011;59921;51.332;12.410;2022-12-29T16:11:34;1.60;;;1.05;;
55601;SDS011;59921;51.332;12.410;2022-12-29T16:14:05;1.75;;;1.20;;
55601;SDS011;59921;51.332;12.410;2022-12-29T16:16:39;1.40;;;0.90;;
55601;SDS011;59921;51.332;12.410;2022-12-29T16:19:17;2.28;;;1.10;;
55601;SDS011;59921;51.332;12.410;2022-12-29T16:21:44;2.80;;;1.20;;
55601;SDS011;59921;51.332;12.410;2022-12-29T16:24:54;1.27;;;1.05;;
55601;SDS011;59921;51.332;12.410;2022-12-29T16:27:06;2.42;;;1.15;;
55601;SDS011;59921;51.332;12.410;2022-12-29T16:29:35;1.50;;;1.00;;
55601;SDS011;59921;51.332;12.410;2022-12-29T16:32:01;3.50;;;1.05;;
55601;SDS011;59921;51.332;12.410;2022-12-29T16:39:52;1.15;;;1.00;;
55601;SDS011;59921;51.332;12.410;2022-12-29T16:42:33;1.40;;;1.00;;
55601;SDS011;59921;51.332;12.410;2022-12-29T16:47:43;1.30;;;0.90;;
55601;SDS011;59921;51.332;12.410;2022-12-29T16:50:12;1.33;;;1.08;;
55601;SDS011;59921;51.332;12.410;2022-12-29T16:52:42;1.73;;;1.05;;
55601;SDS011;59921;51.332;12.410;2022-12-29T16:55:14;1.80;;;1.00;;
55601;SDS011;59921;51.332;12.410;2022-12-29T16:57:41;4.03;;;1.02;;
55601;SDS011;59921;51.332;12.410;2022-12-29T17:00:29;1.80;;;1.30;;
55601;SDS011;59921;51.332;12.410;2022-12-29T17:03:00;1.23;;;1.10;;
55601;SDS011;59921;51.332;12.410;2022-12-29T17:05:27;2.47;;;1.00;;
55601;SDS011;59921;51.332;12.410;2022-12-29T17:07:53;1.50;;;1.10;;
55601;SDS011;59921;51.332;12.410;2022-12-29T17:10:19;1.90;;;1.10;;
55601;SDS011;59921;51.332;12.410;2022-12-29T17:12:46;2.20;;;1.17;;
55601;SDS011;59921;51.332;12.410;2022-12-29T17:15:26;2.13;;;1.15;;
55601;SDS011;59921;51.332;12.410;2022-12-29T17:17:59;2.13;;;1.10;;
55601;SDS011;59921;51.332;12.410;2022-12-29T17:20:28;1.80;;;1.30;;
55601;SDS011;59921;51.332;12.410;2022-12-29T17:22:55;1.20;;;1.10;;
55601;SDS011;59921;51.332;12.410;2022-12-29T17:25:23;1.98;;;1.27;;
55601;SDS011;59921;51.332;12.410;2022-12-29T17:27:56;1.77;;;1.10;;
55601;SDS011;59921;51.332;12.410;2022-12-29T17:30:25;1.55;;;1.23;;
55601;SDS011;59921;51.332;12.410;2022-12-29T17:32:54;1.85;;;1.23;;
55601;SDS011;59921;51.332;12.410;2022-12-29T17:35:24;2.22;;;1.40;;
55601;SDS011;59921;51.332;12.410;2022-12-29T17:37:50;3.17;;;1.45;;
55601;SDS011;59921;51.332;12.410;2022-12-29T17:40:17;1.35;;;1.20;;
55601;SDS011;59921;51.332;12.410;2022-12-29T17:42:46;3.17;;;1.70;;
55601;SDS011;59921;51.332;12.410;2022-12-29T17:45:17;3.15;;;1.45;;
55601;SDS011;59921;51.332;12.410;2022-12-29T17:47:45;1.55;;;1.30;;
55601;SDS011;59921;51.332;12.410;2022-12-29T17:50:15;1.48;;;1.33;;
55601;SDS011;59921;51.332;12.410;2022-12-29T17:52:43;1.92;;;1.30;;
55601;SDS011;59921;51.332;12.410;2022-12-29T17:55:21;2.30;;;1.45;;
55601;SDS011;59921;51.332;12.410;2022-12-29T17:57:48;1.88;;;1.40;;